Terminal Aerodrome Forecast
Issued by NWS

Home | Current Version | Previous Version | Text Only | Print | Product List | Glossary On
Versions: 1 2 3 4 5 6 7 8 9 10 11 12 13 14 15 16 17 18 19 20 21 22 23 24 25
000
FTUS42 KILM 202334
TAFCRE
TAF
KCRE 202334Z 2100/2124 21012KT P6SM VCSH SCT008 SCT060 BKN200
     FM210200 23011KT P6SM SCT015 BKN150
     FM210700 25006KT P6SM SCT060 SCT100
     FM211100 31010KT P6SM FEW040 SCT250
     FM211900 24010KT P6SM SKC=

USA.gov is the U.S. government's official web portal to all federal, state and local government web resources and services.